Time;durP1;ratioP1;P1;durP2;ratioP2;P2;SDS_P1;SDS_P2;PMS_P1;PMS_P2;Temp;Humidity;BMP_temperature;BMP_pressure;BME280_temperature;BME280_humidity;BME280_pressure;Samples;Min_cycle;Max_cycle;Signal;HPM_P1;HPM_P2
2022/06/28 00:00:07;;;;;;;14.98;11.60;;;13.50;99.90;;;;;;5035347;28;20501;-83
2022/06/28 00:02:33;;;;;;;13.82;11.20;;;13.50;99.90;;;;;;5066035;28;20371;-82
2022/06/28 00:04:58;;;;;;;15.38;11.35;;;13.50;99.90;;;;;;5054158;28;20047;-83
2022/06/28 00:07:24;;;;;;;15.20;11.25;;;13.50;99.90;;;;;;5051999;28;20068;-83
2022/06/28 00:09:50;;;;;;;12.45;10.98;;;13.40;99.90;;;;;;5052724;28;20048;-83
2022/06/28 00:12:16;;;;;;;20.25;11.60;;;13.40;99.90;;;;;;5062567;28;20085;-83
2022/06/28 00:17:26;;;;;;;12.20;10.63;;;13.40;99.90;;;;;;5033516;28;20053;-83
2022/06/28 00:19:51;;;;;;;17.25;13.05;;;13.30;99.90;;;;;;5044034;28;20045;-83
2022/06/28 00:22:17;;;;;;;18.25;11.20;;;13.30;99.90;;;;;;5033529;28;20045;-83
2022/06/28 00:24:43;;;;;;;17.40;12.38;;;13.30;99.90;;;;;;5033786;28;20042;-83
2022/06/28 00:27:09;;;;;;;16.85;12.40;;;13.20;99.90;;;;;;5033581;28;20041;-83
2022/06/28 00:29:35;;;;;;;15.43;11.45;;;13.20;99.90;;;;;;5066722;28;20064;-83
2022/06/28 00:32:00;;;;;;;13.05;11.13;;;13.20;99.90;;;;;;5050716;28;20119;-82
2022/06/28 00:34:26;;;;;;;18.52;13.32;;;13.20;99.90;;;;;;5048430;28;20081;-82
2022/06/28 00:36:52;;;;;;;20.08;12.77;;;13.20;99.90;;;;;;5033136;28;20469;-82
2022/06/28 00:39:18;;;;;;;16.13;11.93;;;13.20;99.90;;;;;;5032643;28;20045;-82
2022/06/28 00:41:44;;;;;;;15.60;11.88;;;13.10;99.90;;;;;;5034232;28;20366;-82
2022/06/28 00:44:11;;;;;;;15.98;12.70;;;13.10;99.90;;;;;;5054575;28;20447;-83
2022/06/28 00:46:37;;;;;;;14.93;11.55;;;13.10;99.90;;;;;;5053300;28;20072;-82
2022/06/28 00:49:04;;;;;;;14.95;12.45;;;13.10;99.90;;;;;;5051856;28;20079;-82
2022/06/28 00:51:30;;;;;;;14.88;11.60;;;13.10;99.90;;;;;;5053693;28;20044;-83
2022/06/28 00:53:56;;;;;;;16.73;11.55;;;13.10;99.90;;;;;;5037734;28;20099;-82
2022/06/28 00:56:22;;;;;;;14.60;10.75;;;13.10;99.90;;;;;;5034230;28;20041;-83
2022/06/28 00:58:48;;;;;;;15.00;11.13;;;13.00;99.90;;;;;;5046335;28;20433;-82
2022/06/28 01:01:14;;;;;;;18.33;10.80;;;13.00;99.90;;;;;;5052917;28;20397;-82
2022/06/28 01:03:41;;;;;;;21.20;10.65;;;13.00;99.90;;;;;;5039682;28;20075;-82
2022/06/28 01:06:07;;;;;;;18.08;11.80;;;13.00;99.90;;;;;;5033099;28;20513;-83
2022/06/28 01:08:33;;;;;;;13.68;11.07;;;13.00;99.90;;;;;;5044071;28;20084;-82
2022/06/28 01:11:18;;;;;;;14.35;10.48;;;13.00;99.90;;;;;;5053815;28;20047;-82
2022/06/28 01:13:45;;;;;;;25.20;12.75;;;13.00;99.90;;;;;;5072885;28;20543;-82
2022/06/28 01:16:11;;;;;;;11.68;9.77;;;13.00;99.90;;;;;;5033684;28;20497;-83
2022/06/28 01:18:37;;;;;;;13.90;10.63;;;13.00;99.90;;;;;;5034497;28;20056;-83
2022/06/28 01:21:03;;;;;;;18.13;9.55;;;13.00;99.90;;;;;;5036875;28;20123;-83
2022/06/28 01:23:29;;;;;;;19.95;9.98;;;13.00;99.90;;;;;;5034673;28;20129;-82
2022/06/28 01:25:55;;;;;;;15.13;11.15;;;13.00;99.90;;;;;;5033545;28;20049;-82
2022/06/28 01:28:21;;;;;;;18.23;10.13;;;12.90;99.90;;;;;;5065892;28;20133;-82
2022/06/28 01:30:48;;;;;;;12.55;9.18;;;12.90;99.90;;;;;;5033608;28;20132;-82
2022/06/28 01:33:14;;;;;;;11.13;8.80;;;12.90;99.90;;;;;;5034453;28;20130;-83
2022/06/28 01:35:40;;;;;;;13.25;9.73;;;12.90;99.90;;;;;;5036866;28;20107;-83
2022/06/28 01:38:07;;;;;;;12.73;9.48;;;12.90;99.90;;;;;;5036472;28;20478;-83
2022/06/28 01:40:33;;;;;;;15.50;8.30;;;12.90;99.90;;;;;;5043461;28;20041;-82
2022/06/28 01:43:00;;;;;;;14.50;8.52;;;12.90;99.90;;;;;;5070358;28;20052;-83
2022/06/28 01:45:26;;;;;;;16.27;10.95;;;12.90;99.90;;;;;;5033317;28;20053;-83
2022/06/28 01:47:52;;;;;;;15.85;9.55;;;12.90;99.90;;;;;;5033469;28;20460;-83
2022/06/28 01:50:18;;;;;;;12.75;9.57;;;12.90;99.90;;;;;;5082266;28;20513;-83
2022/06/28 01:52:44;;;;;;;11.27;8.38;;;12.90;99.90;;;;;;5065695;28;20068;-83
2022/06/28 01:55:10;;;;;;;11.40;9.30;;;12.80;99.90;;;;;;5038362;28;20131;-82
2022/06/28 01:57:37;;;;;;;19.98;9.80;;;12.80;99.90;;;;;;5052255;28;20091;-83
2022/06/28 02:00:03;;;;;;;13.60;8.80;;;12.80;99.90;;;;;;5083508;28;20055;-83
2022/06/28 02:02:29;;;;;;;12.13;8.38;;;12.80;99.90;;;;;;5052475;28;20120;-82
2022/06/28 02:04:55;;;;;;;13.80;9.60;;;12.70;99.90;;;;;;5065507;28;20560;-82
2022/06/28 02:07:21;;;;;;;13.80;8.93;;;12.80;99.90;;;;;;5037947;28;20452;-83
2022/06/28 02:09:46;;;;;;;10.20;9.00;;;12.70;99.90;;;;;;5032357;28;20084;-83
2022/06/28 02:12:12;;;;;;;16.88;9.00;;;12.70;99.90;;;;;;5051810;28;20077;-83
2022/06/28 02:14:38;;;;;;;12.63;9.75;;;12.70;99.90;;;;;;5040379;28;20084;-83
2022/06/28 02:17:04;;;;;;;14.20;9.40;;;12.70;99.90;;;;;;5064561;28;20438;-83
2022/06/28 02:19:29;;;;;;;14.30;9.70;;;12.70;99.90;;;;;;5065126;28;20084;-83
2022/06/28 02:21:55;;;;;;;14.45;8.65;;;12.70;99.90;;;;;;5065150;28;20047;-83
2022/06/28 02:24:21;;;;;;;12.20;8.45;;;12.70;99.90;;;;;;5035578;28;20041;-83
2022/06/28 02:26:47;;;;;;;14.38;7.97;;;12.60;99.90;;;;;;5052975;28;20053;-83
2022/06/28 02:29:12;;;;;;;14.23;8.48;;;12.70;99.90;;;;;;5046246;28;20042;-82
2022/06/28 02:31:38;;;;;;;18.63;9.02;;;12.70;99.90;;;;;;5032194;28;20041;-83
2022/06/28 02:34:04;;;;;;;14.77;9.50;;;12.70;99.90;;;;;;5033871;28;20046;-83
2022/06/28 02:42:07;;;;;;;16.73;8.00;;;12.60;99.90;;;;;;5036896;28;20116;-82
2022/06/28 02:44:33;;;;;;;12.25;7.35;;;12.50;99.90;;;;;;5076793;28;20563;-83
2022/06/28 02:46:59;;;;;;;17.38;7.82;;;12.50;99.90;;;;;;5089223;28;20098;-82
2022/06/28 02:49:24;;;;;;;16.65;8.02;;;12.50;99.90;;;;;;5048770;28;20049;-82
2022/06/28 02:51:50;;;;;;;14.50;7.68;;;12.50;99.90;;;;;;5036003;28;20049;-83
2022/06/28 02:54:16;;;;;;;11.32;7.00;;;12.50;99.90;;;;;;5073502;28;20053;-83
2022/06/28 02:56:42;;;;;;;15.88;7.78;;;12.50;99.90;;;;;;5036545;28;20041;-82
2022/06/28 02:59:08;;;;;;;10.32;7.72;;;12.50;99.90;;;;;;5048739;28;20044;-83
2022/06/28 03:01:34;;;;;;;9.50;7.88;;;12.40;99.90;;;;;;5055141;28;20094;-83
2022/06/28 03:03:59;;;;;;;17.80;8.45;;;12.40;99.90;;;;;;5054526;28;20052;-83
2022/06/28 03:06:25;;;;;;;13.38;7.78;;;12.40;99.90;;;;;;5054069;28;20053;-83
2022/06/28 03:08:51;;;;;;;14.70;8.40;;;12.40;99.90;;;;;;5053893;28;20054;-83
2022/06/28 03:11:17;;;;;;;13.23;7.60;;;12.40;99.90;;;;;;5054972;28;20182;-82
2022/06/28 03:13:43;;;;;;;12.88;7.20;;;12.40;99.90;;;;;;5047014;28;20132;-83
2022/06/28 03:16:08;;;;;;;15.30;9.02;;;12.30;99.90;;;;;;5034901;28;20552;-83
2022/06/28 03:18:34;;;;;;;11.10;8.07;;;12.30;99.90;;;;;;5068761;28;20191;-83
2022/06/28 03:21:00;;;;;;;9.93;8.45;;;12.30;99.90;;;;;;5039872;28;20037;-83
2022/06/28 03:23:26;;;;;;;8.65;7.25;;;12.30;99.90;;;;;;5055217;28;20408;-83
2022/06/28 03:25:52;;;;;;;11.20;8.10;;;12.30;99.90;;;;;;5053777;28;20049;-83
2022/06/28 03:28:18;;;;;;;9.77;7.85;;;12.30;99.90;;;;;;5087263;28;20538;-83
2022/06/28 03:30:44;;;;;;;9.77;7.63;;;12.30;99.90;;;;;;5053606;28;20052;-84
2022/06/28 03:33:10;;;;;;;12.07;8.57;;;12.30;99.90;;;;;;5055753;28;20107;-83
2022/06/28 03:35:35;;;;;;;11.80;7.38;;;12.20;99.90;;;;;;5054341;28;20098;-83
2022/06/28 03:38:01;;;;;;;9.45;7.28;;;12.20;99.90;;;;;;5054604;28;20473;-83
2022/06/28 03:40:27;;;;;;;9.90;6.50;;;12.20;99.90;;;;;;5054854;28;20037;-83
2022/06/28 03:42:52;;;;;;;22.25;9.50;;;12.20;99.90;;;;;;5052131;28;20420;-83
2022/06/28 03:45:18;;;;;;;11.25;8.25;;;12.10;99.90;;;;;;5053896;28;20137;-83
2022/06/28 03:47:44;;;;;;;14.57;7.90;;;12.10;99.90;;;;;;5037767;28;20045;-83
2022/06/28 03:50:10;;;;;;;16.33;9.32;;;12.10;99.90;;;;;;5035399;28;20049;-83
2022/06/28 03:52:36;;;;;;;16.98;8.85;;;12.10;99.90;;;;;;5068168;28;20489;-83
2022/06/28 03:55:03;;;;;;;15.57;8.90;;;12.10;99.90;;;;;;5043221;28;20045;-83
2022/06/28 03:57:28;;;;;;;8.40;7.35;;;12.10;99.90;;;;;;5067336;28;20092;-83
2022/06/28 03:59:59;;;;;;;9.25;7.55;;;12.10;99.90;;;;;;5035241;28;20077;-83
2022/06/28 04:02:25;;;;;;;14.10;8.10;;;12.10;99.90;;;;;;5034577;28;20049;-84
2022/06/28 04:04:51;;;;;;;12.43;8.05;;;12.10;99.90;;;;;;5035875;28;20034;-84
2022/06/28 04:07:17;;;;;;;14.65;8.23;;;12.10;99.90;;;;;;5066697;28;20064;-84
2022/06/28 04:09:43;;;;;;;16.00;7.80;;;12.20;99.90;;;;;;5080286;28;20048;-84
2022/06/28 04:12:09;;;;;;;13.38;7.40;;;12.20;99.90;;;;;;5055228;28;20048;-84
2022/06/28 04:14:35;;;;;;;15.18;7.32;;;12.20;99.90;;;;;;5053603;28;20048;-83
2022/06/28 04:17:00;;;;;;;14.85;7.13;;;12.20;99.90;;;;;;5034851;28;20037;-84
2022/06/28 04:19:26;;;;;;;12.68;6.80;;;12.30;99.90;;;;;;5036214;28;20095;-84
2022/06/28 04:21:52;;;;;;;11.07;7.10;;;12.30;99.90;;;;;;5035539;28;20481;-83
2022/06/28 04:24:18;;;;;;;10.85;6.70;;;12.40;99.90;;;;;;5049959;28;20041;-83
2022/06/28 04:26:43;;;;;;;9.90;6.20;;;12.40;99.90;;;;;;5052521;28;20048;-83
2022/06/28 04:29:09;;;;;;;17.67;7.18;;;12.40;99.90;;;;;;5035510;28;20045;-83
2022/06/28 04:31:35;;;;;;;12.27;8.35;;;12.50;99.90;;;;;;5032747;28;20481;-83
2022/06/28 04:34:01;;;;;;;9.82;6.75;;;12.50;99.90;;;;;;5051923;28;20528;-84
2022/06/28 04:36:26;;;;;;;9.43;6.72;;;12.60;99.90;;;;;;5054180;28;20123;-84
2022/06/28 04:38:53;;;;;;;13.45;6.82;;;12.60;99.90;;;;;;5037619;28;20179;-84
2022/06/28 04:41:23;;;;;;;11.25;6.40;;;12.70;99.90;;;;;;5039247;28;20346;-84
2022/06/28 04:43:51;;;;;;;16.17;6.43;;;12.80;99.90;;;;;;5067212;28;20569;-86
2022/06/28 04:46:16;;;;;;;11.88;6.55;;;12.90;99.90;;;;;;5058439;28;20055;-84
2022/06/28 04:48:42;;;;;;;17.15;7.93;;;13.00;99.90;;;;;;5052654;28;20037;-84
2022/06/28 04:51:11;;;;;;;10.30;5.45;;;13.10;99.90;;;;;;5070129;28;20502;-84
2022/06/28 04:53:41;;;;;;;13.38;6.38;;;13.10;99.90;;;;;;5050864;28;20072;-86
2022/06/28 04:56:08;;;;;;;15.55;6.70;;;13.20;99.90;;;;;;5036116;28;20041;-86
2022/06/28 04:58:34;;;;;;;16.40;7.32;;;13.30;99.90;;;;;;5051360;28;20138;-86
2022/06/28 05:01:00;;;;;;;12.48;6.00;;;13.40;99.90;;;;;;5052523;28;20481;-85
2022/06/28 05:03:26;;;;;;;17.88;6.50;;;13.50;99.90;;;;;;5053714;28;20055;-86
2022/06/28 05:05:52;;;;;;;12.32;5.72;;;13.50;99.90;;;;;;5085604;28;20041;-86
2022/06/28 05:08:17;;;;;;;11.55;5.63;;;13.60;99.90;;;;;;5053724;28;20061;-86
2022/06/28 05:10:43;;;;;;;8.05;5.78;;;13.70;99.90;;;;;;5052429;28;20087;-87
2022/06/28 05:13:09;;;;;;;15.07;5.50;;;13.70;99.90;;;;;;5051563;28;20043;-87
2022/06/28 05:15:34;;;;;;;16.65;6.57;;;13.80;99.90;;;;;;5055260;28;20132;-87
2022/06/28 05:18:00;;;;;;;11.32;5.40;;;13.80;99.90;;;;;;5045898;28;20044;-87
2022/06/28 05:20:26;;;;;;;14.40;6.55;;;13.90;99.90;;;;;;5033089;28;20405;-87
2022/06/28 05:22:52;;;;;;;8.45;5.30;;;14.00;99.90;;;;;;5033982;28;20033;-86
2022/06/28 05:25:17;;;;;;;11.48;4.90;;;14.00;99.90;;;;;;5066132;28;20393;-87
2022/06/28 05:27:43;;;;;;;12.20;4.75;;;14.10;99.90;;;;;;5071025;28;20495;-87
2022/06/28 05:30:09;;;;;;;11.38;5.90;;;14.10;99.90;;;;;;5054948;28;20041;-87
2022/06/28 05:32:35;;;;;;;11.95;5.05;;;14.10;99.90;;;;;;5051073;28;20044;-87
2022/06/28 05:35:01;;;;;;;11.73;5.72;;;14.10;99.90;;;;;;5032990;28;20393;-90
2022/06/28 05:37:27;;;;;;;18.35;5.38;;;14.20;99.90;;;;;;5034045;28;20033;-87
2022/06/28 05:39:52;;;;;;;12.30;5.55;;;14.30;99.90;;;;;;5079199;28;20403;-87
2022/06/28 05:42:18;;;;;;;14.07;5.15;;;14.40;99.90;;;;;;5039946;28;20094;-87
2022/06/28 05:44:44;;;;;;;14.48;4.80;;;14.50;99.90;;;;;;5065490;28;20049;-87
2022/06/28 05:47:11;;;;;;;12.88;4.70;;;14.60;99.90;;;;;;5043527;28;20037;-88
2022/06/28 05:49:38;;;;;;;12.57;4.75;;;14.60;99.90;;;;;;5053095;28;20489;-87
2022/06/28 05:52:05;;;;;;;16.67;5.47;;;14.70;99.90;;;;;;5053296;28;20116;-87
2022/06/28 05:54:30;;;;;;;11.38;4.65;;;14.80;99.90;;;;;;5084796;28;20064;-88
2022/06/28 05:56:56;;;;;;;11.35;5.20;;;14.90;99.90;;;;;;5077710;28;20053;-87
2022/06/28 05:59:23;;;;;;;11.73;5.63;;;15.00;99.90;;;;;;5033131;28;20056;-88
2022/06/28 06:01:49;;;;;;;12.52;4.90;;;15.10;99.90;;;;;;5076471;28;20041;-88
2022/06/28 06:04:14;;;;;;;11.57;4.53;;;15.10;99.90;;;;;;5086303;28;20114;-88
2022/06/28 06:06:40;;;;;;;13.05;4.88;;;15.20;99.90;;;;;;5048685;28;20125;-90
2022/06/28 06:09:06;;;;;;;8.32;4.45;;;15.30;99.90;;;;;;5032652;28;20129;-90
2022/06/28 06:11:32;;;;;;;15.02;3.92;;;15.40;99.90;;;;;;5069761;28;20037;-88
2022/06/28 06:13:58;;;;;;;14.75;4.60;;;15.50;99.90;;;;;;5069435;28;20045;-89
2022/06/28 06:16:24;;;;;;;14.77;4.63;;;15.60;99.90;;;;;;5045555;28;20480;-87
2022/06/28 06:18:49;;;;;;;14.77;3.90;;;15.70;99.90;;;;;;5057011;28;20048;-90
2022/06/28 06:21:15;;;;;;;8.60;3.38;;;15.80;99.90;;;;;;5052552;28;20049;-92
2022/06/28 06:23:41;;;;;;;13.23;3.80;;;15.90;99.90;;;;;;5086365;28;20052;-88
2022/06/28 06:26:07;;;;;;;13.90;3.78;;;16.00;99.90;;;;;;5049909;28;20045;-89
2022/06/28 06:28:35;;;;;;;11.32;3.05;;;16.10;99.90;;;;;;5054557;28;20070;-89
2022/06/28 06:31:01;;;;;;;13.20;3.40;;;16.20;99.90;;;;;;5071443;28;20048;-89
2022/06/28 06:33:27;;;;;;;14.13;3.38;;;16.30;99.90;;;;;;5095343;28;20060;-92
2022/06/28 06:35:53;;;;;;;12.73;3.25;;;16.30;99.90;;;;;;5053680;28;20053;-89
2022/06/28 06:38:18;;;;;;;11.82;3.22;;;16.40;99.90;;;;;;5071093;28;20044;-90
2022/06/28 06:40:44;;;;;;;11.32;3.78;;;16.50;99.90;;;;;;5052740;28;20099;-88
2022/06/28 06:43:10;;;;;;;10.18;3.00;;;16.60;99.90;;;;;;5057782;28;20051;-89
2022/06/28 06:45:36;;;;;;;8.05;2.95;;;16.70;99.90;;;;;;5056332;28;20051;-91
2022/06/28 06:48:02;;;;;;;13.20;3.25;;;16.80;99.90;;;;;;5037722;28;20136;-90
2022/06/28 06:50:28;;;;;;;12.90;2.72;;;16.90;99.90;;;;;;5070378;28;20046;-90
2022/06/28 06:52:53;;;;;;;13.55;2.72;;;17.00;99.90;;;;;;5058273;28;20044;-89
2022/06/28 06:55:19;;;;;;;12.82;2.60;;;17.10;99.90;;;;;;5055625;28;20052;-91
2022/06/28 06:57:45;;;;;;;11.25;2.83;;;17.10;99.90;;;;;;5055775;28;20045;-90
2022/06/28 07:00:11;;;;;;;14.32;2.97;;;17.20;99.90;;;;;;5089727;28;20053;-90
2022/06/28 07:02:42;;;;;;;10.55;3.08;;;17.30;99.90;;;;;;5056631;28;20041;-88
2022/06/28 07:05:09;;;;;;;9.25;2.80;;;17.40;99.90;;;;;;5040813;28;20052;-90
2022/06/28 07:07:35;;;;;;;13.18;2.80;;;17.50;99.90;;;;;;5067930;28;20061;-89
2022/06/28 07:10:03;;;;;;;10.73;2.53;;;17.60;99.90;;;;;;5050811;28;20057;-89
2022/06/28 07:12:29;;;;;;;13.80;3.08;;;17.70;99.90;;;;;;5087043;28;20484;-91
2022/06/28 07:14:55;;;;;;;14.88;3.13;;;17.80;99.90;;;;;;5081364;28;20067;-88
2022/06/28 07:17:21;;;;;;;9.90;2.55;;;17.90;99.90;;;;;;5039209;28;20500;-88
2022/06/28 07:19:47;;;;;;;15.88;3.42;;;17.90;99.90;;;;;;5074200;28;20041;-88
2022/06/28 07:22:13;;;;;;;12.18;2.72;;;17.90;99.90;;;;;;5034811;28;20125;-88
2022/06/28 07:24:39;;;;;;;12.82;3.50;;;17.90;99.90;;;;;;5036453;28;20370;-89
2022/06/28 07:27:05;;;;;;;11.02;2.08;;;18.00;99.90;;;;;;5070911;28;20046;-88
2022/06/28 07:29:31;;;;;;;13.13;2.42;;;18.00;99.90;;;;;;5048333;28;20124;-89
2022/06/28 07:31:56;;;;;;;10.80;2.20;;;18.10;99.90;;;;;;5045862;28;20068;-88
2022/06/28 07:34:23;;;;;;;13.20;2.60;;;18.10;99.90;;;;;;5065642;28;20144;-90
2022/06/28 07:36:50;;;;;;;11.82;2.25;;;18.10;99.90;;;;;;5056265;28;20057;-91
2022/06/28 07:39:15;;;;;;;12.95;2.20;;;18.10;99.90;;;;;;5054081;28;20045;-90
2022/06/28 07:41:41;;;;;;;12.52;1.95;;;18.10;99.90;;;;;;5069151;28;20053;-90
2022/06/28 07:44:07;;;;;;;11.77;2.75;;;18.10;99.90;;;;;;5051749;28;20068;-88
2022/06/28 07:46:33;;;;;;;7.13;2.13;;;18.10;99.90;;;;;;5052361;28;20541;-90
2022/06/28 07:48:59;;;;;;;7.65;1.50;;;18.10;99.90;;;;;;5036280;28;20409;-87
2022/06/28 07:54:09;;;;;;;6.53;1.88;;;18.10;99.90;;;;;;5034875;28;20080;-92
2022/06/28 07:56:35;;;;;;;7.45;1.50;;;18.10;99.90;;;;;;5045915;28;20465;-88
2022/06/28 07:59:01;;;;;;;9.50;1.70;;;18.10;99.90;;;;;;5055125;28;20118;-88
2022/06/28 08:01:28;;;;;;;9.30;1.80;;;18.20;99.90;;;;;;5054617;28;20045;-88
2022/06/28 08:03:54;;;;;;;9.25;1.52;;;18.20;99.90;;;;;;5037191;28;20568;-88
2022/06/28 08:06:20;;;;;;;8.57;1.75;;;18.40;99.90;;;;;;5053122;28;20136;-87
2022/06/28 08:08:45;;;;;;;11.82;2.08;;;18.50;99.90;;;;;;5088584;28;20056;-87
2022/06/28 08:11:12;;;;;;;7.20;1.55;;;18.60;99.90;;;;;;5048798;28;20048;-91
2022/06/28 08:13:37;;;;;;;12.35;1.92;;;18.60;99.90;;;;;;5067980;28;20041;-89
2022/06/28 08:16:06;;;;;;;11.07;1.90;;;18.60;99.90;;;;;;5071938;28;20044;-88
2022/06/28 08:18:32;;;;;;;11.80;1.50;;;18.50;99.90;;;;;;5052899;28;20047;-87
2022/06/28 08:20:58;;;;;;;10.63;2.10;;;18.60;99.90;;;;;;5053430;28;20041;-90
2022/06/28 08:23:24;;;;;;;14.70;2.88;;;18.60;99.90;;;;;;5038844;28;20290;-90
2022/06/28 08:25:50;;;;;;;13.40;2.42;;;18.60;99.90;;;;;;5069997;28;20030;-91
2022/06/28 08:28:16;;;;;;;10.15;2.30;;;18.60;99.90;;;;;;5035106;28;20053;-94
2022/06/28 08:30:42;;;;;;;11.65;2.10;;;18.40;99.90;;;;;;5054572;28;20123;-89
2022/06/28 08:33:09;;;;;;;9.27;2.22;;;18.30;99.90;;;;;;5051769;28;20489;-89
2022/06/28 08:35:35;;;;;;;9.63;2.03;;;18.30;99.90;;;;;;5054554;28;20048;-90
2022/06/28 08:38:04;;;;;;;11.93;1.85;;;18.20;99.90;;;;;;5048201;28;20108;-89
2022/06/28 08:40:31;;;;;;;8.20;1.88;;;18.20;99.90;;;;;;5072926;28;20522;-87
2022/06/28 08:42:58;;;;;;;9.40;1.98;;;18.20;99.90;;;;;;5052281;28;20041;-86
2022/06/28 08:45:25;;;;;;;11.02;1.98;;;18.20;99.90;;;;;;5053558;28;20056;-92
2022/06/28 08:47:53;;;;;;;10.75;2.10;;;18.20;99.90;;;;;;5049980;28;20079;-88
2022/06/28 08:50:33;;;;;;;10.15;1.95;;;18.10;99.90;;;;;;5033201;28;20049;-89
2022/06/28 08:53:02;;;;;;;10.18;2.50;;;18.10;99.90;;;;;;5035073;28;20068;-88
2022/06/28 08:55:31;;;;;;;10.05;1.70;;;18.10;99.90;;;;;;5033998;28;20041;-89
2022/06/28 08:58:00;;;;;;;8.80;1.90;;;18.10;99.90;;;;;;5040180;28;20045;-89
2022/06/28 09:00:26;;;;;;;13.15;2.00;;;18.20;99.90;;;;;;5080103;28;20489;-94
2022/06/28 09:02:53;;;;;;;10.57;2.53;;;18.30;99.90;;;;;;5089824;28;20041;-92
2022/06/28 09:05:25;;;;;;;10.38;2.13;;;18.40;99.90;;;;;;5036908;28;20470;-93
2022/06/28 09:07:54;;;;;;;11.02;2.10;;;18.40;99.90;;;;;;5066868;28;20058;-92
2022/06/28 09:10:21;;;;;;;8.55;1.95;;;18.40;99.90;;;;;;5050877;28;20492;-88
2022/06/28 09:12:54;;;;;;;12.25;2.50;;;18.40;99.90;;;;;;5025776;28;20053;-89
2022/06/28 09:15:22;;;;;;;10.05;1.90;;;18.50;99.90;;;;;;5036087;28;20053;-91
2022/06/28 09:17:53;;;;;;;19.02;2.70;;;18.60;99.90;;;;;;5065298;28;20056;-91
2022/06/28 09:20:19;;;;;;;11.48;2.10;;;18.60;99.90;;;;;;5052128;28;20091;-92
2022/06/28 09:22:46;;;;;;;9.27;2.33;;;18.70;99.90;;;;;;5053762;28;20084;-92
2022/06/28 09:25:24;;;;;;;8.73;1.70;;;18.70;99.90;;;;;;5054843;28;20075;-89
2022/06/28 09:27:57;;;;;;;7.18;2.00;;;18.80;99.90;;;;;;5051464;28;20052;-89
2022/06/28 09:30:29;;;;;;;3.85;1.10;;;18.90;99.90;;;;;;5050865;28;20052;-91
2022/06/28 09:32:55;;;;;;;10.32;2.13;;;19.00;99.90;;;;;;5052993;28;20044;-90
2022/06/28 09:35:24;;;;;;;7.68;1.30;;;19.00;99.90;;;;;;5044321;28;20044;-92
2022/06/28 09:37:50;;;;;;;7.70;2.00;;;18.90;99.90;;;;;;5078176;28;20036;-89
2022/06/28 09:40:31;;;;;;;10.43;2.08;;;18.90;99.90;;;;;;5051244;28;20041;-91
2022/06/28 09:43:08;;;;;;;8.13;1.70;;;19.10;99.90;;;;;;5088258;28;20099;-94
2022/06/28 09:45:35;;;;;;;8.88;2.17;;;19.20;99.90;;;;;;5041717;28;20459;-90
2022/06/28 09:48:01;;;;;;;9.13;1.90;;;19.20;99.90;;;;;;5045650;28;20044;-87
2022/06/28 09:50:33;;;;;;;9.90;1.98;;;19.30;99.90;;;;;;5053523;28;20076;-92
2022/06/28 09:53:01;;;;;;;9.02;1.90;;;19.50;99.90;;;;;;5051304;28;20044;-90
2022/06/28 09:55:29;;;;;;;5.30;1.52;;;19.50;99.90;;;;;;5052120;28;20056;-91
2022/06/28 09:57:55;;;;;;;10.80;1.65;;;19.50;99.90;;;;;;5050069;28;20049;-90
2022/06/28 10:00:21;;;;;;;12.30;2.65;;;19.60;99.90;;;;;;5068016;28;20854;-91
2022/06/28 10:02:47;;;;;;;9.45;1.90;;;19.70;99.90;;;;;;5053322;28;20485;-90
2022/06/28 10:05:14;;;;;;;7.63;1.83;;;19.80;99.90;;;;;;5041013;28;20093;-90
2022/06/28 10:07:40;;;;;;;10.73;1.95;;;20.00;99.90;;;;;;5034248;28;20050;-91
2022/06/28 10:10:09;;;;;;;9.95;1.80;;;20.20;99.90;;;;;;5034349;28;20049;-88
2022/06/28 10:15:23;;;;;;;11.38;2.20;;;20.50;99.90;;;;;;5092111;28;20056;-91
2022/06/28 10:17:54;;;;;;;9.40;1.77;;;20.40;99.90;;;;;;5060400;28;20127;-92
2022/06/28 10:20:34;;;;;;;9.48;1.98;;;20.40;99.90;;;;;;5051533;28;20123;-91
2022/06/28 10:23:22;;;;;;;5.47;1.58;;;20.40;99.90;;;;;;5043284;28;20444;-89
2022/06/28 10:26:05;;;;;;;5.70;1.58;;;20.40;99.90;;;;;;5065744;28;20485;-91
2022/06/28 10:28:58;;;;;;;5.75;1.65;;;20.60;99.90;;;;;;5039434;28;20060;-89
2022/06/28 10:31:24;;;;;;;8.10;1.80;;;20.70;99.90;;;;;;5012784;28;20061;-90
2022/06/28 10:33:58;;;;;;;13.98;1.92;;;20.80;99.90;;;;;;5049485;28;20041;-91
2022/06/28 10:36:27;;;;;;;11.20;1.97;;;20.90;99.90;;;;;;5047951;28;20084;-91
2022/06/28 10:39:07;;;;;;;13.25;2.17;;;20.80;99.90;;;;;;5052720;28;20045;-90
2022/06/28 10:42:13;;;;;;;5.80;1.70;;;20.90;99.90;;;;;;5048200;28;20043;-88
2022/06/28 10:44:38;;;;;;;6.82;1.52;;;20.90;99.90;;;;;;5049229;28;20136;-89
2022/06/28 10:47:04;;;;;;;5.95;1.50;;;21.00;99.90;;;;;;5029885;28;20521;-90
2022/06/28 10:50:02;;;;;;;8.35;1.98;;;21.00;99.90;;;;;;5039648;28;20053;-93
2022/06/28 10:52:35;;;;;;;6.65;1.50;;;21.10;99.90;;;;;;5048559;28;20067;-93
2022/06/28 10:55:04;;;;;;;8.00;1.52;;;21.00;99.90;;;;;;5035034;28;20041;-90
2022/06/28 10:57:33;;;;;;;11.95;2.00;;;21.10;99.90;;;;;;5051189;28;20072;-91
2022/06/28 11:00:07;;;;;;;8.55;2.03;;;21.10;99.90;;;;;;5062207;28;20033;-88
2022/06/28 11:02:51;;;;;;;6.22;1.65;;;21.20;99.90;;;;;;5069406;28;20045;-88
2022/06/28 11:05:20;;;;;;;6.18;1.42;;;21.20;99.90;;;;;;5051291;28;20448;-93
2022/06/28 11:08:01;;;;;;;10.38;1.45;;;21.10;99.90;;;;;;5068014;28;20501;-89
2022/06/28 11:10:28;;;;;;;7.57;1.70;;;21.10;99.90;;;;;;5042155;28;20556;-90
2022/06/28 11:13:21;;;;;;;7.00;1.60;;;21.10;99.90;;;;;;5062032;28;20049;-91
2022/06/28 11:15:47;;;;;;;5.38;1.60;;;21.10;99.90;;;;;;5052912;28;20063;-90
2022/06/28 11:18:19;;;;;;;7.65;1.42;;;21.20;99.90;;;;;;5034485;28;20057;-92
2022/06/28 11:20:45;;;;;;;7.78;1.70;;;21.30;99.90;;;;;;5070980;28;20099;-87
2022/06/28 11:23:29;;;;;;;5.95;1.67;;;21.30;99.90;;;;;;5055437;28;20048;-88
2022/06/28 11:29:01;;;;;;;6.60;1.45;;;20.90;99.90;;;;;;5035198;28;20367;-90
2022/06/28 11:31:29;;;;;;;5.53;1.30;;;20.80;99.90;;;;;;5057243;28;20044;-92
2022/06/28 11:33:56;;;;;;;7.55;1.75;;;20.60;99.90;;;;;;5088707;28;20044;-91
2022/06/28 11:36:30;;;;;;;6.72;1.63;;;20.50;99.90;;;;;;5084014;28;20469;-89
2022/06/28 11:39:03;;;;;;;7.82;1.63;;;20.30;99.90;;;;;;5087012;28;20048;-90
2022/06/28 11:41:33;;;;;;;7.88;1.90;;;20.30;99.90;;;;;;5055081;28;20510;-91
2022/06/28 11:44:01;;;;;;;4.28;1.33;;;20.40;99.90;;;;;;5055901;28;20049;-88
2022/06/28 11:46:28;;;;;;;10.18;3.38;;;20.50;99.90;;;;;;5050320;28;20069;-88
2022/06/28 11:48:55;;;;;;;4.60;1.30;;;20.70;99.90;;;;;;5067535;28;20057;-91
2022/06/28 11:51:28;;;;;;;5.75;1.10;;;20.70;99.90;;;;;;5088613;28;20575;-88
2022/06/28 11:53:55;;;;;;;6.00;1.10;;;20.70;99.90;;;;;;5062200;28;20508;-89
2022/06/28 11:56:20;;;;;;;8.85;1.35;;;20.60;99.90;;;;;;5048867;28;20048;-87
2022/06/28 11:58:46;;;;;;;10.20;1.30;;;20.60;99.90;;;;;;5054976;28;20044;-87
2022/06/28 12:01:18;;;;;;;9.10;1.60;;;20.50;99.90;;;;;;5080933;28;20037;-87
2022/06/28 12:03:43;;;;;;;5.40;1.48;;;20.50;99.90;;;;;;5035367;28;20045;-91
2022/06/28 12:06:30;;;;;;;7.38;1.30;;;20.60;99.90;;;;;;5045410;28;20476;-92
2022/06/28 12:09:02;;;;;;;10.75;1.88;;;20.70;99.90;;;;;;5054051;28;20052;-89
2022/06/28 12:11:39;;;;;;;6.60;1.25;;;20.90;99.90;;;;;;5028333;28;20128;-89
2022/06/28 12:14:05;;;;;;;7.28;1.15;;;21.00;99.90;;;;;;5035478;28;20421;-91
2022/06/28 12:16:35;;;;;;;3.00;1.02;;;21.10;99.90;;;;;;5035011;28;20044;-91
2022/06/28 12:19:03;;;;;;;9.20;1.40;;;21.20;99.90;;;;;;5040093;28;20144;-88
2022/06/28 12:21:29;;;;;;;7.78;1.05;;;21.20;99.90;;;;;;5086337;28;20049;-90
2022/06/28 12:23:59;;;;;;;9.68;1.77;;;21.10;99.90;;;;;;5050526;28;20044;-90
2022/06/28 12:26:45;;;;;;;3.95;1.60;;;21.00;99.90;;;;;;5054620;28;20053;-87
2022/06/28 12:29:14;;;;;;;7.55;1.35;;;21.10;99.90;;;;;;5058344;28;20049;-88
2022/06/28 12:31:43;;;;;;;5.45;1.85;;;21.20;99.90;;;;;;5066913;28;20045;-88
2022/06/28 12:34:10;;;;;;;5.35;1.15;;;21.40;99.90;;;;;;5043358;28;20400;-88
2022/06/28 12:36:36;;;;;;;7.07;2.17;;;21.50;99.90;;;;;;5053752;28;20075;-87
2022/06/28 12:39:03;;;;;;;10.02;1.50;;;21.40;99.90;;;;;;5042015;28;20037;-92
2022/06/28 12:41:29;;;;;;;3.97;0.95;;;21.40;99.90;;;;;;5070432;28;20610;-91
2022/06/28 12:43:55;;;;;;;5.75;1.25;;;21.30;99.90;;;;;;5054932;28;20083;-88
2022/06/28 12:46:21;;;;;;;6.57;1.33;;;21.10;99.90;;;;;;5053341;28;20128;-88
2022/06/28 12:48:47;;;;;;;7.82;1.08;;;20.90;99.90;;;;;;5042494;28;20047;-87
2022/06/28 12:51:13;;;;;;;5.00;1.40;;;21.00;99.90;;;;;;5053578;28;20041;-92
2022/06/28 12:53:39;;;;;;;5.63;1.17;;;21.00;99.90;;;;;;5035057;28;20097;-94
2022/06/28 12:56:04;;;;;;;5.55;1.30;;;21.00;99.90;;;;;;5033834;28;20071;-90